sensor_id;sensor_type;location;lat;lon;timestamp;P1;durP1;ratioP1;P2;durP2;ratioP2
8698;SDS011;4386;51.236;6.742;2023-02-18T00:00:35;13.02;;;9.50;;
8698;SDS011;4386;51.236;6.742;2023-02-18T00:01:40;12.55;;;9.73;;
8698;SDS011;4386;51.236;6.742;2023-02-18T00:02:43;12.43;;;9.57;;
8698;SDS011;4386;51.236;6.742;2023-02-18T00:03:49;11.68;;;9.18;;
8698;SDS011;4386;51.236;6.742;2023-02-18T00:05:12;14.25;;;9.40;;
8698;SDS011;4386;51.236;6.742;2023-02-18T00:06:35;9.35;;;8.00;;
8698;SDS011;4386;51.236;6.742;2023-02-18T00:07:59;16.17;;;9.80;;
8698;SDS011;4386;51.236;6.742;2023-02-18T00:09:21;16.35;;;9.32;;
8698;SDS011;4386;51.236;6.742;2023-02-18T00:10:25;14.70;;;10.07;;
8698;SDS011;4386;51.236;6.742;2023-02-18T00:11:27;15.35;;;10.27;;
8698;SDS011;4386;51.236;6.742;2023-02-18T00:12:31;14.00;;;10.02;;
8698;SDS011;4386;51.236;6.742;2023-02-18T00:13:33;13.20;;;10.52;;
8698;SDS011;4386;51.236;6.742;2023-02-18T00:14:35;16.67;;;10.80;;
8698;SDS011;4386;51.236;6.742;2023-02-18T00:15:39;14.70;;;10.45;;
8698;SDS011;4386;51.236;6.742;2023-02-18T00:16:42;12.35;;;9.82;;
8698;SDS011;4386;51.236;6.742;2023-02-18T00:17:48;11.95;;;10.30;;
8698;SDS011;4386;51.236;6.742;2023-02-18T00:18:53;14.02;;;9.90;;
8698;SDS011;4386;51.236;6.742;2023-02-18T00:19:56;13.60;;;9.55;;
8698;SDS011;4386;51.236;6.742;2023-02-18T00:20:57;14.80;;;10.68;;
8698;SDS011;4386;51.236;6.742;2023-02-18T00:22:00;13.70;;;10.85;;
8698;SDS011;4386;51.236;6.742;2023-02-18T00:23:02;13.38;;;9.65;;
8698;SDS011;4386;51.236;6.742;2023-02-18T00:24:05;13.65;;;9.52;;
8698;SDS011;4386;51.236;6.742;2023-02-18T00:25:09;10.73;;;9.45;;
8698;SDS011;4386;51.236;6.742;2023-02-18T00:26:14;14.02;;;10.90;;
8698;SDS011;4386;51.236;6.742;2023-02-18T00:27:17;16.38;;;9.25;;
8698;SDS011;4386;51.236;6.742;2023-02-18T00:28:20;12.55;;;9.68;;
8698;SDS011;4386;51.236;6.742;2023-02-18T00:29:21;11.85;;;9.70;;
8698;SDS011;4386;51.236;6.742;2023-02-18T00:30:24;13.68;;;9.82;;
8698;SDS011;4386;51.236;6.742;2023-02-18T00:31:26;17.70;;;10.60;;
8698;SDS011;4386;51.236;6.742;2023-02-18T00:32:30;14.35;;;10.00;;
8698;SDS011;4386;51.236;6.742;2023-02-18T00:33:32;15.40;;;9.68;;
8698;SDS011;4386;51.236;6.742;2023-02-18T00:34:35;14.93;;;9.85;;
8698;SDS011;4386;51.236;6.742;2023-02-18T00:35:37;13.45;;;9.93;;
8698;SDS011;4386;51.236;6.742;2023-02-18T00:36:40;19.13;;;11.68;;
8698;SDS011;4386;51.236;6.742;2023-02-18T00:37:52;14.27;;;10.30;;
8698;SDS011;4386;51.236;6.742;2023-02-18T00:38:55;14.18;;;11.80;;
8698;SDS011;4386;51.236;6.742;2023-02-18T00:39:58;16.67;;;11.27;;
8698;SDS011;4386;51.236;6.742;2023-02-18T00:41:00;13.77;;;9.27;;
8698;SDS011;4386;51.236;6.742;2023-02-18T00:42:03;17.15;;;10.45;;
8698;SDS011;4386;51.236;6.742;2023-02-18T00:43:06;13.73;;;10.48;;
8698;SDS011;4386;51.236;6.742;2023-02-18T00:44:08;18.48;;;11.60;;
8698;SDS011;4386;51.236;6.742;2023-02-18T00:45:11;14.52;;;11.07;;
8698;SDS011;4386;51.236;6.742;2023-02-18T00:46:12;16.02;;;10.50;;
8698;SDS011;4386;51.236;6.742;2023-02-18T00:47:15;17.10;;;12.40;;
8698;SDS011;4386;51.236;6.742;2023-02-18T00:48:17;16.48;;;9.95;;
8698;SDS011;4386;51.236;6.742;2023-02-18T00:49:19;13.18;;;10.75;;
8698;SDS011;4386;51.236;6.742;2023-02-18T00:50:22;19.88;;;10.73;;
8698;SDS011;4386;51.236;6.742;2023-02-18T00:51:24;16.65;;;11.23;;
8698;SDS011;4386;51.236;6.742;2023-02-18T00:52:27;12.48;;;10.05;;
8698;SDS011;4386;51.236;6.742;2023-02-18T00:53:29;15.18;;;10.52;;
8698;SDS011;4386;51.236;6.742;2023-02-18T00:54:31;17.95;;;11.23;;
8698;SDS011;4386;51.236;6.742;2023-02-18T00:55:37;14.70;;;10.80;;
8698;SDS011;4386;51.236;6.742;2023-02-18T00:56:39;15.68;;;10.55;;
8698;SDS011;4386;51.236;6.742;2023-02-18T00:57:43;13.00;;;10.00;;
8698;SDS011;4386;51.236;6.742;2023-02-18T00:58:45;12.07;;;9.93;;
8698;SDS011;4386;51.236;6.742;2023-02-18T00:59:48;14.20;;;10.65;;
8698;SDS011;4386;51.236;6.742;2023-02-18T01:00:49;17.67;;;10.63;;
8698;SDS011;4386;51.236;6.742;2023-02-18T01:01:52;15.15;;;11.18;;
8698;SDS011;4386;51.236;6.742;2023-02-18T01:02:54;14.73;;;11.07;;
8698;SDS011;4386;51.236;6.742;2023-02-18T01:03:56;14.70;;;10.07;;
8698;SDS011;4386;51.236;6.742;2023-02-18T01:04:58;14.55;;;10.75;;
8698;SDS011;4386;51.236;6.742;2023-02-18T01:06:01;13.07;;;10.18;;
8698;SDS011;4386;51.236;6.742;2023-02-18T01:07:03;15.48;;;10.13;;
8698;SDS011;4386;51.236;6.742;2023-02-18T01:08:06;11.45;;;9.10;;
8698;SDS011;4386;51.236;6.742;2023-02-18T01:09:19;13.10;;;9.48;;
8698;SDS011;4386;51.236;6.742;2023-02-18T01:10:21;14.70;;;8.85;;
8698;SDS011;4386;51.236;6.742;2023-02-18T01:11:23;11.68;;;9.85;;
8698;SDS011;4386;51.236;6.742;2023-02-18T01:12:26;13.23;;;10.48;;
8698;SDS011;4386;51.236;6.742;2023-02-18T01:13:29;13.43;;;9.98;;
8698;SDS011;4386;51.236;6.742;2023-02-18T01:14:32;11.15;;;9.15;;
8698;SDS011;4386;51.236;6.742;2023-02-18T01:15:34;12.02;;;9.90;;
8698;SDS011;4386;51.236;6.742;2023-02-18T01:16:36;12.60;;;9.20;;
8698;SDS011;4386;51.236;6.742;2023-02-18T01:17:47;16.55;;;10.32;;
8698;SDS011;4386;51.236;6.742;2023-02-18T01:18:49;14.68;;;9.27;;
8698;SDS011;4386;51.236;6.742;2023-02-18T01:19:52;12.77;;;9.05;;
8698;SDS011;4386;51.236;6.742;2023-02-18T01:20:53;12.05;;;9.35;;
8698;SDS011;4386;51.236;6.742;2023-02-18T01:21:56;12.55;;;8.65;;
8698;SDS011;4386;51.236;6.742;2023-02-18T01:22:57;14.98;;;10.32;;
8698;SDS011;4386;51.236;6.742;2023-02-18T01:24:01;13.32;;;9.45;;
8698;SDS011;4386;51.236;6.742;2023-02-18T01:25:04;14.90;;;9.07;;
8698;SDS011;4386;51.236;6.742;2023-02-18T01:26:07;16.23;;;10.23;;
8698;SDS011;4386;51.236;6.742;2023-02-18T01:27:10;12.23;;;8.95;;
8698;SDS011;4386;51.236;6.742;2023-02-18T01:28:13;12.55;;;9.70;;
8698;SDS011;4386;51.236;6.742;2023-02-18T01:29:16;9.40;;;8.40;;
8698;SDS011;4386;51.236;6.742;2023-02-18T01:30:19;13.23;;;10.10;;
8698;SDS011;4386;51.236;6.742;2023-02-18T01:31:22;13.70;;;9.52;;
8698;SDS011;4386;51.236;6.742;2023-02-18T01:32:24;11.38;;;8.88;;
8698;SDS011;4386;51.236;6.742;2023-02-18T01:33:26;11.15;;;9.38;;
8698;SDS011;4386;51.236;6.742;2023-02-18T01:34:29;15.35;;;10.63;;
8698;SDS011;4386;51.236;6.742;2023-02-18T01:35:30;14.73;;;9.73;;
8698;SDS011;4386;51.236;6.742;2023-02-18T01:36:33;14.18;;;9.48;;
8698;SDS011;4386;51.236;6.742;2023-02-18T01:37:35;13.18;;;10.00;;
8698;SDS011;4386;51.236;6.742;2023-02-18T01:38:38;14.70;;;9.02;;
8698;SDS011;4386;51.236;6.742;2023-02-18T01:39:39;11.27;;;8.02;;
8698;SDS011;4386;51.236;6.742;2023-02-18T01:40:45;11.65;;;8.80;;
8698;SDS011;4386;51.236;6.742;2023-02-18T01:41:48;12.73;;;8.95;;
8698;SDS011;4386;51.236;6.742;2023-02-18T01:42:51;16.38;;;9.93;;
8698;SDS011;4386;51.236;6.742;2023-02-18T01:45:39;11.93;;;9.18;;
8698;SDS011;4386;51.236;6.742;2023-02-18T01:46:50;15.43;;;9.15;;
8698;SDS011;4386;51.236;6.742;2023-02-18T01:47:53;24.73;;;9.13;;
8698;SDS011;4386;51.236;6.742;2023-02-18T01:48:56;17.02;;;9.07;;
8698;SDS011;4386;51.236;6.742;2023-02-18T01:50:01;15.15;;;10.02;;
8698;SDS011;4386;51.236;6.742;2023-02-18T01:51:04;14.43;;;10.07;;
8698;SDS011;4386;51.236;6.742;2023-02-18T01:52:11;14.20;;;9.70;;
8698;SDS011;4386;51.236;6.742;2023-02-18T01:53:17;11.70;;;8.77;;
8698;SDS011;4386;51.236;6.742;2023-02-18T01:54:24;11.43;;;8.98;;
8698;SDS011;4386;51.236;6.742;2023-02-18T01:55:30;12.25;;;9.10;;
8698;SDS011;4386;51.236;6.742;2023-02-18T01:56:34;12.70;;;8.75;;
8698;SDS011;4386;51.236;6.742;2023-02-18T01:57:38;14.55;;;8.90;;
8698;SDS011;4386;51.236;6.742;2023-02-18T01:58:41;12.23;;;9.02;;
8698;SDS011;4386;51.236;6.742;2023-02-18T01:59:47;12.70;;;10.02;;
8698;SDS011;4386;51.236;6.742;2023-02-18T02:00:53;12.65;;;9.80;;
8698;SDS011;4386;51.236;6.742;2023-02-18T02:01:54;18.75;;;9.35;;
8698;SDS011;4386;51.236;6.742;2023-02-18T02:02:57;22.50;;;10.45;;
8698;SDS011;4386;51.236;6.742;2023-02-18T02:03:59;12.13;;;8.88;;
8698;SDS011;4386;51.236;6.742;2023-02-18T02:05:02;13.27;;;9.73;;
8698;SDS011;4386;51.236;6.742;2023-02-18T02:06:05;16.60;;;10.25;;
8698;SDS011;4386;51.236;6.742;2023-02-18T02:07:15;16.73;;;9.63;;
8698;SDS011;4386;51.236;6.742;2023-02-18T02:08:18;16.70;;;9.65;;
8698;SDS011;4386;51.236;6.742;2023-02-18T02:09:21;14.48;;;9.57;;
8698;SDS011;4386;51.236;6.742;2023-02-18T02:10:28;13.35;;;9.88;;
8698;SDS011;4386;51.236;6.742;2023-02-18T02:11:40;13.50;;;9.30;;
8698;SDS011;4386;51.236;6.742;2023-02-18T02:13:11;14.00;;;8.70;;
8698;SDS011;4386;51.236;6.742;2023-02-18T02:14:22;10.82;;;9.00;;
8698;SDS011;4386;51.236;6.742;2023-02-18T02:15:37;16.65;;;9.30;;
8698;SDS011;4386;51.236;6.742;2023-02-18T02:16:48;13.50;;;8.70;;
8698;SDS011;4386;51.236;6.742;2023-02-18T02:18:15;14.40;;;8.73;;
8698;SDS011;4386;51.236;6.742;2023-02-18T02:21:22;12.77;;;8.93;;
8698;SDS011;4386;51.236;6.742;2023-02-18T02:24:53;14.85;;;9.10;;
8698;SDS011;4386;51.236;6.742;2023-02-18T02:26:11;13.50;;;8.38;;
8698;SDS011;4386;51.236;6.742;2023-02-18T02:27:50;13.05;;;8.52;;
8698;SDS011;4386;51.236;6.742;2023-02-18T02:31:01;11.43;;;8.63;;
8698;SDS011;4386;51.236;6.742;2023-02-18T02:32:28;11.20;;;8.20;;
8698;SDS011;4386;51.236;6.742;2023-02-18T02:33:57;9.60;;;7.43;;
8698;SDS011;4386;51.236;6.742;2023-02-18T02:35:16;14.10;;;8.25;;
8698;SDS011;4386;51.236;6.742;2023-02-18T02:36:22;11.40;;;8.02;;
8698;SDS011;4386;51.236;6.742;2023-02-18T02:37:33;12.32;;;8.43;;
8698;SDS011;4386;51.236;6.742;2023-02-18T02:38:44;13.10;;;8.68;;
8698;SDS011;4386;51.236;6.742;2023-02-18T02:40:03;12.02;;;8.25;;
8698;SDS011;4386;51.236;6.742;2023-02-18T02:41:16;12.63;;;9.27;;
8698;SDS011;4386;51.236;6.742;2023-02-18T02:42:29;14.93;;;9.52;;
8698;SDS011;4386;51.236;6.742;2023-02-18T02:43:42;12.45;;;8.25;;
8698;SDS011;4386;51.236;6.742;2023-02-18T02:44:55;11.45;;;8.70;;
8698;SDS011;4386;51.236;6.742;2023-02-18T02:46:04;13.45;;;8.70;;
8698;SDS011;4386;51.236;6.742;2023-02-18T02:47:13;16.90;;;8.52;;
8698;SDS011;4386;51.236;6.742;2023-02-18T02:48:22;12.73;;;8.85;;
8698;SDS011;4386;51.236;6.742;2023-02-18T02:49:35;12.15;;;8.55;;
8698;SDS011;4386;51.236;6.742;2023-02-18T02:50:46;13.32;;;8.45;;
8698;SDS011;4386;51.236;6.742;2023-02-18T02:51:57;13.55;;;9.45;;
8698;SDS011;4386;51.236;6.742;2023-02-18T02:53:03;17.13;;;9.10;;
8698;SDS011;4386;51.236;6.742;2023-02-18T02:54:13;12.73;;;9.77;;
8698;SDS011;4386;51.236;6.742;2023-02-18T02:55:17;16.70;;;9.70;;
8698;SDS011;4386;51.236;6.742;2023-02-18T02:56:21;17.10;;;10.15;;
8698;SDS011;4386;51.236;6.742;2023-02-18T02:57:41;14.85;;;9.75;;
8698;SDS011;4386;51.236;6.742;2023-02-18T02:58:49;15.60;;;9.25;;
8698;SDS011;4386;51.236;6.742;2023-02-18T03:00:00;15.20;;;10.48;;
8698;SDS011;4386;51.236;6.742;2023-02-18T03:01:16;13.90;;;9.43;;
8698;SDS011;4386;51.236;6.742;2023-02-18T03:02:27;11.35;;;8.73;;
8698;SDS011;4386;51.236;6.742;2023-02-18T03:03:42;13.73;;;9.80;;
8698;SDS011;4386;51.236;6.742;2023-02-18T03:05:01;15.35;;;9.45;;
8698;SDS011;4386;51.236;6.742;2023-02-18T03:06:20;12.43;;;8.48;;
8698;SDS011;4386;51.236;6.742;2023-02-18T03:07:37;15.32;;;9.13;;
8698;SDS011;4386;51.236;6.742;2023-02-18T03:08:57;17.23;;;10.57;;
8698;SDS011;4386;51.236;6.742;2023-02-18T03:10:13;15.10;;;8.85;;
8698;SDS011;4386;51.236;6.742;2023-02-18T03:11:24;14.95;;;9.77;;
8698;SDS011;4386;51.236;6.742;2023-02-18T03:12:32;16.50;;;10.63;;
8698;SDS011;4386;51.236;6.742;2023-02-18T03:13:53;16.65;;;10.25;;
8698;SDS011;4386;51.236;6.742;2023-02-18T03:15:03;15.35;;;9.70;;
8698;SDS011;4386;51.236;6.742;2023-02-18T03:16:11;17.45;;;10.43;;
8698;SDS011;4386;51.236;6.742;2023-02-18T03:17:21;19.70;;;9.50;;
8698;SDS011;4386;51.236;6.742;2023-02-18T03:18:27;12.73;;;8.27;;
8698;SDS011;4386;51.236;6.742;2023-02-18T03:19:36;15.65;;;9.38;;
8698;SDS011;4386;51.236;6.742;2023-02-18T03:20:42;17.23;;;10.63;;
8698;SDS011;4386;51.236;6.742;2023-02-18T03:21:50;15.80;;;10.38;;
8698;SDS011;4386;51.236;6.742;2023-02-18T03:22:56;15.43;;;9.95;;
8698;SDS011;4386;51.236;6.742;2023-02-18T03:24:02;14.80;;;9.68;;
8698;SDS011;4386;51.236;6.742;2023-02-18T03:25:10;14.68;;;9.93;;
8698;SDS011;4386;51.236;6.742;2023-02-18T03:26:15;18.85;;;10.35;;
8698;SDS011;4386;51.236;6.742;2023-02-18T03:27:20;16.73;;;10.10;;
8698;SDS011;4386;51.236;6.742;2023-02-18T03:28:26;14.32;;;9.15;;
8698;SDS011;4386;51.236;6.742;2023-02-18T03:29:32;13.60;;;9.50;;
8698;SDS011;4386;51.236;6.742;2023-02-18T03:30:36;14.93;;;9.55;;
8698;SDS011;4386;51.236;6.742;2023-02-18T03:31:48;13.38;;;9.05;;
8698;SDS011;4386;51.236;6.742;2023-02-18T03:32:54;11.85;;;8.93;;
8698;SDS011;4386;51.236;6.742;2023-02-18T03:34:01;15.32;;;8.70;;
8698;SDS011;4386;51.236;6.742;2023-02-18T03:35:18;11.63;;;8.10;;
8698;SDS011;4386;51.236;6.742;2023-02-18T03:36:24;15.02;;;10.40;;
8698;SDS011;4386;51.236;6.742;2023-02-18T03:37:27;13.75;;;8.45;;
8698;SDS011;4386;51.236;6.742;2023-02-18T03:38:32;15.25;;;8.90;;
8698;SDS011;4386;51.236;6.742;2023-02-18T03:39:36;14.70;;;10.18;;
8698;SDS011;4386;51.236;6.742;2023-02-18T03:40:42;13.65;;;9.20;;
8698;SDS011;4386;51.236;6.742;2023-02-18T03:41:44;14.48;;;9.00;;
8698;SDS011;4386;51.236;6.742;2023-02-18T03:42:57;13.25;;;8.43;;
8698;SDS011;4386;51.236;6.742;2023-02-18T03:44:01;12.20;;;7.63;;
8698;SDS011;4386;51.236;6.742;2023-02-18T03:45:06;12.30;;;8.45;;
8698;SDS011;4386;51.236;6.742;2023-02-18T03:46:08;9.88;;;7.32;;
8698;SDS011;4386;51.236;6.742;2023-02-18T03:47:16;11.75;;;8.18;;
8698;SDS011;4386;51.236;6.742;2023-02-18T03:48:18;13.40;;;7.68;;
8698;SDS011;4386;51.236;6.742;2023-02-18T03:49:20;12.45;;;7.82;;
8698;SDS011;4386;51.236;6.742;2023-02-18T03:50:22;10.25;;;7.65;;
8698;SDS011;4386;51.236;6.742;2023-02-18T03:51:26;10.90;;;7.25;;
8698;SDS011;4386;51.236;6.742;2023-02-18T03:52:27;8.70;;;6.30;;
8698;SDS011;4386;51.236;6.742;2023-02-18T03:53:30;9.73;;;6.93;;
8698;SDS011;4386;51.236;6.742;2023-02-18T03:54:31;9.57;;;6.65;;
8698;SDS011;4386;51.236;6.742;2023-02-18T03:55:34;8.35;;;6.20;;
8698;SDS011;4386;51.236;6.742;2023-02-18T03:56:36;9.25;;;6.47;;
8698;SDS011;4386;51.236;6.742;2023-02-18T03:57:39;8.13;;;6.47;;
8698;SDS011;4386;51.236;6.742;2023-02-18T03:58:40;10.05;;;6.65;;
8698;SDS011;4386;51.236;6.742;2023-02-18T03:59:43;10.20;;;6.72;;
8698;SDS011;4386;51.236;6.742;2023-02-18T04:00:44;8.40;;;5.80;;
8698;SDS011;4386;51.236;6.742;2023-02-18T04:01:47;8.13;;;5.50;;
8698;SDS011;4386;51.236;6.742;2023-02-18T04:02:50;7.45;;;5.30;;
8698;SDS011;4386;51.236;6.742;2023-02-18T04:03:53;5.30;;;4.50;;
8698;SDS011;4386;51.236;6.742;2023-02-18T04:04:55;6.68;;;5.65;;
8698;SDS011;4386;51.236;6.742;2023-02-18T04:05:58;5.65;;;4.90;;
8698;SDS011;4386;51.236;6.742;2023-02-18T04:07:01;9.43;;;6.15;;
8698;SDS011;4386;51.236;6.742;2023-02-18T04:08:03;7.57;;;6.13;;
8698;SDS011;4386;51.236;6.742;2023-02-18T04:09:05;8.98;;;5.13;;
8698;SDS011;4386;51.236;6.742;2023-02-18T04:10:09;5.43;;;4.47;;
8698;SDS011;4386;51.236;6.742;2023-02-18T04:11:11;6.60;;;5.07;;
8698;SDS011;4386;51.236;6.742;2023-02-18T04:12:14;6.70;;;4.93;;
8698;SDS011;4386;51.236;6.742;2023-02-18T04:13:25;7.20;;;4.10;;
8698;SDS011;4386;51.236;6.742;2023-02-18T04:14:29;5.40;;;4.20;;
8698;SDS011;4386;51.236;6.742;2023-02-18T04:15:30;5.63;;;3.95;;
8698;SDS011;4386;51.236;6.742;2023-02-18T04:16:34;4.55;;;3.95;;
8698;SDS011;4386;51.236;6.742;2023-02-18T04:17:36;4.22;;;3.65;;
8698;SDS011;4386;51.236;6.742;2023-02-18T04:18:38;6.05;;;4.45;;
8698;SDS011;4386;51.236;6.742;2023-02-18T04:19:40;4.13;;;3.45;;
8698;SDS011;4386;51.236;6.742;2023-02-18T04:20:43;5.20;;;4.20;;
8698;SDS011;4386;51.236;6.742;2023-02-18T04:21:46;5.07;;;3.95;;
8698;SDS011;4386;51.236;6.742;2023-02-18T04:22:50;5.15;;;4.05;;
8698;SDS011;4386;51.236;6.742;2023-02-18T04:23:52;5.65;;;4.20;;
8698;SDS011;4386;51.236;6.742;2023-02-18T04:24:54;3.72;;;3.20;;
8698;SDS011;4386;51.236;6.742;2023-02-18T04:25:56;4.22;;;3.78;;
8698;SDS011;4386;51.236;6.742;2023-02-18T04:26:58;3.92;;;3.60;;
8698;SDS011;4386;51.236;6.742;2023-02-18T04:28:00;4.25;;;3.85;;
8698;SDS011;4386;51.236;6.742;2023-02-18T04:29:02;5.40;;;3.97;;
8698;SDS011;4386;51.236;6.742;2023-02-18T04:30:05;3.97;;;3.58;;
8698;SDS011;4386;51.236;6.742;2023-02-18T04:31:19;4.55;;;3.85;;
8698;SDS011;4386;51.236;6.742;2023-02-18T04:32:20;4.90;;;3.97;;
8698;SDS011;4386;51.236;6.742;2023-02-18T04:33:23;5.00;;;3.70;;
8698;SDS011;4386;51.236;6.742;2023-02-18T04:34:25;4.00;;;3.70;;
8698;SDS011;4386;51.236;6.742;2023-02-18T04:35:28;3.95;;;3.28;;
8698;SDS011;4386;51.236;6.742;2023-02-18T04:36:29;4.00;;;3.58;;
8698;SDS011;4386;51.236;6.742;2023-02-18T04:37:32;4.35;;;3.75;;
8698;SDS011;4386;51.236;6.742;2023-02-18T04:38:36;5.82;;;3.80;;
8698;SDS011;4386;51.236;6.742;2023-02-18T04:39:37;3.83;;;3.50;;
8698;SDS011;4386;51.236;6.742;2023-02-18T04:40:40;3.47;;;3.15;;
8698;SDS011;4386;51.236;6.742;2023-02-18T04:41:42;4.35;;;3.35;;
8698;SDS011;4386;51.236;6.742;2023-02-18T04:42:45;3.53;;;3.10;;
8698;SDS011;4386;51.236;6.742;2023-02-18T04:43:46;3.65;;;3.30;;
8698;SDS011;4386;51.236;6.742;2023-02-18T04:44:49;3.83;;;3.45;;
8698;SDS011;4386;51.236;6.742;2023-02-18T04:46:00;4.20;;;3.80;;
8698;SDS011;4386;51.236;6.742;2023-02-18T04:47:03;3.95;;;3.55;;
8698;SDS011;4386;51.236;6.742;2023-02-18T04:48:05;3.53;;;3.20;;
8698;SDS011;4386;51.236;6.742;2023-02-18T04:49:08;7.80;;;3.55;;
8698;SDS011;4386;51.236;6.742;2023-02-18T04:50:09;4.05;;;3.10;;
8698;SDS011;4386;51.236;6.742;2023-02-18T04:51:12;4.03;;;3.25;;
8698;SDS011;4386;51.236;6.742;2023-02-18T04:52:14;4.85;;;3.30;;
8698;SDS011;4386;51.236;6.742;2023-02-18T04:53:16;4.30;;;3.90;;
8698;SDS011;4386;51.236;6.742;2023-02-18T04:54:19;3.97;;;3.47;;
8698;SDS011;4386;51.236;6.742;2023-02-18T04:55:22;4.97;;;4.47;;
8698;SDS011;4386;51.236;6.742;2023-02-18T04:56:23;4.53;;;3.70;;
8698;SDS011;4386;51.236;6.742;2023-02-18T04:57:26;5.30;;;3.90;;
8698;SDS011;4386;51.236;6.742;2023-02-18T04:58:28;4.90;;;4.28;;
8698;SDS011;4386;51.236;6.742;2023-02-18T04:59:30;8.52;;;4.40;;
8698;SDS011;4386;51.236;6.742;2023-02-18T05:00:32;4.45;;;4.05;;
8698;SDS011;4386;51.236;6.742;2023-02-18T05:01:36;4.65;;;4.07;;
8698;SDS011;4386;51.236;6.742;2023-02-18T05:02:37;5.00;;;4.40;;
8698;SDS011;4386;51.236;6.742;2023-02-18T05:03:40;9.20;;;5.00;;
8698;SDS011;4386;51.236;6.742;2023-02-18T05:04:42;4.30;;;3.90;;
8698;SDS011;4386;51.236;6.742;2023-02-18T05:05:45;3.83;;;3.53;;
8698;SDS011;4386;51.236;6.742;2023-02-18T05:06:46;4.72;;;4.13;;
8698;SDS011;4386;51.236;6.742;2023-02-18T05:07:49;3.70;;;3.33;;
8698;SDS011;4386;51.236;6.742;2023-02-18T05:08:51;3.83;;;3.15;;
8698;SDS011;4386;51.236;6.742;2023-02-18T05:09:54;3.25;;;2.95;;
8698;SDS011;4386;51.236;6.742;2023-02-18T05:10:56;4.03;;;3.63;;
8698;SDS011;4386;51.236;6.742;2023-02-18T05:11:58;3.25;;;2.95;;
8698;SDS011;4386;51.236;6.742;2023-02-18T05:13:00;3.13;;;2.85;;
8698;SDS011;4386;51.236;6.742;2023-02-18T05:14:03;3.95;;;3.10;;
8698;SDS011;4386;51.236;6.742;2023-02-18T05:15:14;3.08;;;2.78;;
8698;SDS011;4386;51.236;6.742;2023-02-18T05:16:16;3.20;;;2.90;;
8698;SDS011;4386;51.236;6.742;2023-02-18T05:17:18;3.60;;;3.30;;
8698;SDS011;4386;51.236;6.742;2023-02-18T05:18:21;3.28;;;2.80;;
8698;SDS011;4386;51.236;6.742;2023-02-18T05:19:22;4.28;;;3.85;;
8698;SDS011;4386;51.236;6.742;2023-02-18T05:20:27;3.95;;;3.55;;
8698;SDS011;4386;51.236;6.742;2023-02-18T05:21:28;5.57;;;3.50;;
8698;SDS011;4386;51.236;6.742;2023-02-18T05:22:31;4.07;;;3.20;;
8698;SDS011;4386;51.236;6.742;2023-02-18T05:23:39;4.53;;;3.38;;
8698;SDS011;4386;51.236;6.742;2023-02-18T05:24:42;4.05;;;3.50;;
8698;SDS011;4386;51.236;6.742;2023-02-18T05:25:44;5.10;;;3.90;;
8698;SDS011;4386;51.236;6.742;2023-02-18T05:26:47;4.90;;;4.13;;
8698;SDS011;4386;51.236;6.742;2023-02-18T05:27:59;6.60;;;4.75;;
8698;SDS011;4386;51.236;6.742;2023-02-18T05:29:02;8.00;;;5.80;;
8698;SDS011;4386;51.236;6.742;2023-02-18T05:30:04;5.30;;;3.60;;
8698;SDS011;4386;51.236;6.742;2023-02-18T05:31:08;5.32;;;4.25;;
8698;SDS011;4386;51.236;6.742;2023-02-18T05:32:10;6.13;;;4.47;;
8698;SDS011;4386;51.236;6.742;2023-02-18T05:33:12;8.32;;;4.72;;
8698;SDS011;4386;51.236;6.742;2023-02-18T05:34:14;4.90;;;3.72;;
8698;SDS011;4386;51.236;6.742;2023-02-18T05:35:17;6.68;;;4.70;;
8698;SDS011;4386;51.236;6.742;2023-02-18T05:36:19;5.90;;;5.18;;
8698;SDS011;4386;51.236;6.742;2023-02-18T05:37:21;5.80;;;4.53;;
8698;SDS011;4386;51.236;6.742;2023-02-18T05:38:23;5.80;;;4.43;;
8698;SDS011;4386;51.236;6.742;2023-02-18T05:39:25;5.35;;;3.90;;
8698;SDS011;4386;51.236;6.742;2023-02-18T05:40:27;5.13;;;3.67;;
8698;SDS011;4386;51.236;6.742;2023-02-18T05:41:31;5.60;;;4.30;;
8698;SDS011;4386;51.236;6.742;2023-02-18T05:42:38;5.20;;;4.05;;
8698;SDS011;4386;51.236;6.742;2023-02-18T05:43:41;5.30;;;4.00;;
8698;SDS011;4386;51.236;6.742;2023-02-18T05:45:01;8.60;;;3.80;;
8698;SDS011;4386;51.236;6.742;2023-02-18T05:46:04;4.93;;;3.85;;
8698;SDS011;4386;51.236;6.742;2023-02-18T05:47:07;5.95;;;3.70;;
8698;SDS011;4386;51.236;6.742;2023-02-18T05:48:11;4.65;;;3.80;;
8698;SDS011;4386;51.236;6.742;2023-02-18T05:49:13;3.63;;;3.33;;
8698;SDS011;4386;51.236;6.742;2023-02-18T05:50:16;4.93;;;3.25;;
8698;SDS011;4386;51.236;6.742;2023-02-18T05:51:17;4.80;;;3.60;;
8698;SDS011;4386;51.236;6.742;2023-02-18T05:52:20;4.30;;;3.90;;
8698;SDS011;4386;51.236;6.742;2023-02-18T05:53:23;4.18;;;3.72;;
8698;SDS011;4386;51.236;6.742;2023-02-18T05:54:26;3.65;;;3.35;;
8698;SDS011;4386;51.236;6.742;2023-02-18T05:55:28;4.40;;;4.00;;
8698;SDS011;4386;51.236;6.742;2023-02-18T05:56:32;8.30;;;3.92;;
8698;SDS011;4386;51.236;6.742;2023-02-18T05:57:33;3.80;;;3.22;;
8698;SDS011;4386;51.236;6.742;2023-02-18T05:58:36;4.18;;;3.40;;
8698;SDS011;4386;51.236;6.742;2023-02-18T05:59:37;5.22;;;3.60;;
8698;SDS011;4386;51.236;6.742;2023-02-18T06:00:40;4.35;;;3.60;;
8698;SDS011;4386;51.236;6.742;2023-02-18T06:01:42;5.70;;;4.30;;
8698;SDS011;4386;51.236;6.742;2023-02-18T06:02:45;4.47;;;4.00;;
8698;SDS011;4386;51.236;6.742;2023-02-18T06:03:46;4.68;;;3.60;;
8698;SDS011;4386;51.236;6.742;2023-02-18T06:04:49;6.38;;;3.17;;
8698;SDS011;4386;51.236;6.742;2023-02-18T06:05:51;4.25;;;3.50;;
8698;SDS011;4386;51.236;6.742;2023-02-18T06:06:53;4.60;;;4.18;;
8698;SDS011;4386;51.236;6.742;2023-02-18T06:07:55;4.50;;;3.80;;
8698;SDS011;4386;51.236;6.742;2023-02-18T06:08:58;4.22;;;3.83;;
8698;SDS011;4386;51.236;6.742;2023-02-18T06:10:00;6.18;;;4.18;;
8698;SDS011;4386;51.236;6.742;2023-02-18T06:11:02;4.22;;;3.63;;
8698;SDS011;4386;51.236;6.742;2023-02-18T06:12:06;5.10;;;4.57;;
8698;SDS011;4386;51.236;6.742;2023-02-18T06:13:08;5.00;;;3.72;;
8698;SDS011;4386;51.236;6.742;2023-02-18T06:14:10;5.43;;;4.30;;
8698;SDS011;4386;51.236;6.742;2023-02-18T06:15:12;5.95;;;4.47;;
8698;SDS011;4386;51.236;6.742;2023-02-18T06:16:14;5.82;;;4.15;;
8698;SDS011;4386;51.236;6.742;2023-02-18T06:17:17;7.03;;;5.05;;
8698;SDS011;4386;51.236;6.742;2023-02-18T06:18:19;5.22;;;4.72;;
8698;SDS011;4386;51.236;6.742;2023-02-18T06:19:21;6.03;;;4.88;;
8698;SDS011;4386;51.236;6.742;2023-02-18T06:20:23;6.00;;;4.35;;
8698;SDS011;4386;51.236;6.742;2023-02-18T06:21:26;6.38;;;5.25;;
8698;SDS011;4386;51.236;6.742;2023-02-18T06:22:28;5.60;;;4.85;;
8698;SDS011;4386;51.236;6.742;2023-02-18T06:26:01;5.75;;;4.75;;
8698;SDS011;4386;51.236;6.742;2023-02-18T06:27:05;7.70;;;5.70;;
8698;SDS011;4386;51.236;6.742;2023-02-18T06:28:07;6.45;;;4.85;;
8698;SDS011;4386;51.236;6.742;2023-02-18T06:29:10;5.95;;;4.80;;
8698;SDS011;4386;51.236;6.742;2023-02-18T06:30:12;6.20;;;4.93;;
8698;SDS011;4386;51.236;6.742;2023-02-18T06:31:15;6.60;;;4.93;;
8698;SDS011;4386;51.236;6.742;2023-02-18T06:32:17;6.40;;;4.88;;
8698;SDS011;4386;51.236;6.742;2023-02-18T06:33:21;6.00;;;4.78;;
8698;SDS011;4386;51.236;6.742;2023-02-18T06:34:23;6.95;;;4.93;;
8698;SDS011;4386;51.236;6.742;2023-02-18T06:35:26;6.53;;;5.15;;
8698;SDS011;4386;51.236;6.742;2023-02-18T06:36:28;5.60;;;5.00;;
8698;SDS011;4386;51.236;6.742;2023-02-18T06:37:30;5.72;;;4.60;;
8698;SDS011;4386;51.236;6.742;2023-02-18T06:38:32;5.70;;;5.00;;
8698;SDS011;4386;51.236;6.742;2023-02-18T06:39:37;4.47;;;4.07;;
8698;SDS011;4386;51.236;6.742;2023-02-18T06:40:39;5.38;;;4.20;;
8698;SDS011;4386;51.236;6.742;2023-02-18T06:41:51;4.25;;;3.85;;
8698;SDS011;4386;51.236;6.742;2023-02-18T06:42:56;5.18;;;4.68;;
8698;SDS011;4386;51.236;6.742;2023-02-18T06:43:57;4.50;;;4.03;;
8698;SDS011;4386;51.236;6.742;2023-02-18T06:45:00;7.03;;;4.47;;
8698;SDS011;4386;51.236;6.742;2023-02-18T06:46:02;5.13;;;4.30;;
8698;SDS011;4386;51.236;6.742;2023-02-18T06:47:05;4.45;;;3.95;;
8698;SDS011;4386;51.236;6.742;2023-02-18T06:48:07;5.53;;;4.72;;
8698;SDS011;4386;51.236;6.742;2023-02-18T06:49:11;5.68;;;4.20;;
8698;SDS011;4386;51.236;6.742;2023-02-18T06:50:12;5.07;;;4.43;;